createdAt,value
2017-03-06T00:00:19.354Z,41.53
2017-03-06T00:01:18.947Z,41.63
2017-03-06T00:02:19.631Z,41.34
2017-03-06T00:03:19.401Z,41.72
2017-03-06T00:04:19.426Z,41.92
2017-03-06T00:05:19.454Z,41.63
2017-03-06T00:06:19.087Z,41.82
2017-03-06T00:07:19.764Z,41.82
2017-03-06T00:08:19.536Z,41.92
2017-03-06T00:09:19.561Z,41.89
2017-03-06T00:10:19.206Z,41.63
2017-03-06T00:11:19.615Z,41.82
2017-03-06T00:12:19.896Z,41.63
2017-03-06T00:13:19.673Z,41.63
2017-03-06T00:14:19.698Z,41.72
2017-03-06T00:15:19.327Z,41.82
2017-03-06T00:16:19.387Z,41.99
2017-03-06T00:17:20.027Z,42.21
2017-03-06T00:18:19.437Z,41.82
2017-03-06T00:19:19.447Z,41.24
2017-03-06T00:20:19.885Z,41.92
2017-03-06T00:21:19.902Z,41.99
2017-03-06T00:22:19.767Z,42.02
2017-03-06T00:23:19.948Z,41.89
2017-03-06T00:24:19.978Z,41.44
2017-03-06T00:25:19.598Z,41.92
2017-03-06T00:26:20.054Z,42.02
2017-03-06T00:27:20.295Z,41.8
2017-03-06T00:28:20.105Z,41.8
2017-03-06T00:29:20.133Z,41.99
2017-03-06T00:30:20.136Z,42.09
2017-03-06T00:31:19.753Z,41.99
2017-03-06T00:32:20.463Z,41.99
2017-03-06T00:33:20.200Z,41.22
2017-03-06T00:34:19.853Z,41.99
2017-03-06T00:35:20.270Z,41.61
2017-03-06T00:36:20.318Z,41.99
2017-03-06T00:37:20.564Z,42.09
2017-03-06T00:38:20.340Z,42.09
2017-03-06T00:39:20.380Z,42.19
2017-03-06T00:40:20.405Z,42.19
2017-03-06T00:41:20.422Z,41.82
2017-03-06T00:42:20.747Z,42.09
2017-03-06T00:43:20.484Z,41.99
2017-03-06T00:44:20.529Z,41.99
2017-03-06T00:45:20.541Z,41.99
2017-03-06T00:46:20.566Z,41.22
2017-03-06T00:47:20.590Z,41.89
2017-03-06T00:48:20.624Z,42.19
2017-03-06T00:49:20.241Z,42.19
2017-03-06T00:50:20.689Z,41.99
2017-03-06T00:51:20.686Z,41.99
2017-03-06T00:52:20.739Z,42.09
2017-03-06T00:53:20.747Z,41.99
2017-03-06T00:54:20.785Z,41.99
2017-03-06T00:55:20.793Z,42.09
2017-03-06T00:56:20.846Z,41.99
2017-03-06T00:57:20.455Z,42.09
2017-03-06T00:58:20.899Z,41.99
2017-03-06T00:59:20.906Z,42.09
2017-03-06T01:00:20.945Z,41.89
2017-03-06T01:01:20.978Z,41.99
2017-03-06T01:02:21.003Z,41.99
2017-03-06T01:03:20.616Z,42.09
2017-03-06T01:04:20.669Z,42.09
2017-03-06T01:05:20.669Z,42.09
2017-03-06T01:06:21.110Z,41.61
2017-03-06T01:07:21.115Z,42.09
2017-03-06T01:08:21.143Z,41.99
2017-03-06T01:09:21.168Z,42.09
2017-03-06T01:10:20.801Z,42.09
2017-03-06T01:11:21.223Z,42.09
2017-03-06T01:12:21.254Z,42.09
2017-03-06T01:13:20.883Z,42.09
2017-03-06T01:14:21.318Z,41.99
2017-03-06T01:15:20.945Z,41.89
2017-03-06T01:16:21.378Z,41.99
2017-03-06T01:17:21.382Z,42.09
2017-03-06T01:18:21.439Z,41.99
2017-03-06T01:19:21.433Z,41.99
2017-03-06T01:20:21.108Z,42.19
2017-03-06T01:21:21.484Z,42.09
2017-03-06T01:22:21.514Z,41.89
2017-03-06T01:23:21.563Z,41.71
2017-03-06T01:24:21.592Z,42.09
2017-03-06T01:25:21.596Z,42.09
2017-03-06T01:26:21.641Z,42.09
2017-03-06T01:27:21.653Z,41.99
2017-03-06T01:28:21.695Z,42.28
2017-03-06T01:29:21.702Z,42.09
2017-03-06T01:30:21.356Z,41.99
2017-03-06T01:31:21.757Z,42.07
2017-03-06T01:32:21.801Z,41.71
2017-03-06T01:33:21.810Z,41.8
2017-03-06T01:34:21.859Z,41.99
2017-03-06T01:35:21.864Z,41.8
2017-03-06T01:36:21.908Z,41.8
2017-03-06T01:37:21.912Z,41.59
2017-03-06T01:38:21.975Z,42.28
2017-03-06T01:39:21.967Z,41.89
2017-03-06T01:40:21.599Z,41.71
2017-03-06T01:41:22.016Z,41.89
2017-03-06T01:42:22.049Z,41.8
2017-03-06T01:43:21.682Z,41.8
2017-03-06T01:44:21.728Z,41.88
2017-03-06T01:45:22.127Z,41.99
2017-03-06T01:46:22.184Z,41.99
2017-03-06T01:47:22.184Z,41.88
2017-03-06T01:48:22.069Z,41.61
2017-03-06T01:49:22.234Z,42.09
2017-03-06T01:50:22.259Z,41.99
2017-03-06T01:51:22.292Z,41.78
2017-03-06T01:52:22.324Z,41.71
2017-03-06T01:53:22.593Z,41.71
2017-03-06T01:54:22.362Z,41.8
2017-03-06T01:55:22.000Z,41.68
2017-03-06T01:56:22.422Z,41.89
2017-03-06T01:57:22.449Z,41.71
2017-03-06T01:58:22.327Z,41.71
2017-03-06T01:59:22.499Z,41.78
2017-03-06T02:00:22.530Z,41.8
2017-03-06T02:01:22.551Z,41.8
2017-03-06T02:02:22.188Z,41.97
2017-03-06T02:03:22.861Z,41.97
2017-03-06T02:04:22.633Z,42.28
2017-03-06T02:05:22.258Z,41.68
2017-03-06T02:06:22.687Z,41.78
2017-03-06T02:07:22.308Z,41.97
2017-03-06T02:08:22.991Z,41.97
2017-03-06T02:09:22.768Z,41.78
2017-03-06T02:10:22.818Z,41.78
2017-03-06T02:11:22.818Z,41.78
2017-03-06T02:12:22.855Z,41.68
2017-03-06T02:13:23.136Z,41.78
2017-03-06T02:14:22.893Z,41.71
2017-03-06T02:15:22.534Z,41.68
2017-03-06T02:16:22.967Z,41.97
2017-03-06T02:17:22.979Z,41.97
2017-03-06T02:18:23.255Z,41.8
2017-03-06T02:19:23.029Z,42.16
2017-03-06T02:20:23.061Z,41.68
2017-03-06T02:21:23.095Z,41.78
2017-03-06T02:22:23.126Z,41.68
2017-03-06T02:23:23.387Z,41.59
2017-03-06T02:24:23.164Z,41.78
2017-03-06T02:25:23.194Z,42.16
2017-03-06T02:26:23.230Z,41.97
2017-03-06T02:27:23.243Z,41.68
2017-03-06T02:28:23.528Z,42.16
2017-03-06T02:29:23.308Z,41.97
2017-03-06T02:30:22.923Z,41.78
2017-03-06T02:31:23.362Z,42.07
2017-03-06T02:32:22.986Z,42.46
2017-03-06T02:33:23.651Z,41.78
2017-03-06T02:34:23.438Z,42.26
2017-03-06T02:35:23.064Z,41.68
2017-03-06T02:36:23.480Z,41.68
2017-03-06T02:37:23.108Z,41.88
2017-03-06T02:38:23.386Z,42.16
2017-03-06T02:39:23.568Z,41.97
2017-03-06T02:40:23.584Z,41.78
2017-03-06T02:41:23.612Z,41.68
2017-03-06T02:42:23.641Z,42.36
2017-03-06T02:43:23.917Z,41.59
2017-03-06T02:44:23.703Z,41.78
2017-03-06T02:45:23.323Z,41.88
2017-03-06T02:46:23.348Z,42.16
2017-03-06T02:47:23.781Z,41.59
2017-03-06T02:48:24.057Z,41.68
2017-03-06T02:49:23.428Z,41.68
2017-03-06T02:50:23.851Z,41.97
2017-03-06T02:51:23.876Z,41.97
2017-03-06T02:52:23.904Z,41.59
2017-03-06T02:53:24.181Z,41.68
2017-03-06T02:54:23.563Z,41.97
2017-03-06T02:55:23.587Z,41.78
2017-03-06T02:56:24.020Z,41.68
2017-03-06T02:57:24.033Z,41.68
2017-03-06T02:58:23.681Z,41.68
2017-03-06T02:59:24.089Z,41.68
2017-03-06T03:00:23.715Z,41.59
2017-03-06T03:01:24.148Z,41.78
2017-03-06T03:02:24.164Z,41.68
2017-03-06T03:03:24.189Z,41.97
2017-03-06T03:04:24.222Z,41.59
2017-03-06T03:05:24.251Z,42.07
2017-03-06T03:06:23.875Z,41.78
2017-03-06T03:07:24.300Z,41.97
2017-03-06T03:08:24.341Z,41.68
2017-03-06T03:09:23.957Z,41.97
2017-03-06T03:10:24.378Z,42.36
2017-03-06T03:11:24.011Z,42.46
2017-03-06T03:12:24.436Z,41.59
2017-03-06T03:13:24.064Z,41.68
2017-03-06T03:14:24.489Z,42.07
2017-03-06T03:15:24.513Z,42.07
2017-03-06T03:16:24.538Z,41.97
2017-03-06T03:17:24.567Z,42.07
2017-03-06T03:18:24.600Z,41.78
2017-03-06T03:19:24.221Z,41.97
2017-03-06T03:20:24.260Z,42.36
2017-03-06T03:21:24.274Z,42.36
2017-03-06T03:22:24.699Z,42.46
2017-03-06T03:23:24.330Z,41.78
2017-03-06T03:24:24.365Z,42.46
2017-03-06T03:25:24.777Z,41.78
2017-03-06T03:26:24.813Z,42.07
2017-03-06T03:27:24.838Z,42.26
2017-03-06T03:28:24.851Z,41.78
2017-03-06T03:29:24.880Z,42.36
2017-03-06T03:30:24.920Z,41.68
2017-03-06T03:31:24.941Z,42.36
2017-03-06T03:32:24.566Z,42.46
2017-03-06T03:33:24.987Z,42.26
2017-03-06T03:34:25.016Z,42.36
2017-03-06T03:35:25.044Z,41.97
2017-03-06T03:36:25.061Z,41.68
2017-03-06T03:37:25.102Z,41.78
2017-03-06T03:38:25.131Z,42.46
2017-03-06T03:39:25.163Z,41.88
2017-03-06T03:40:25.168Z,41.68
2017-03-06T03:41:25.205Z,42.16
2017-03-06T03:42:24.829Z,42.07
2017-03-06T03:43:24.858Z,42.07
2017-03-06T03:44:25.280Z,41.68
2017-03-06T03:45:24.912Z,42.07
2017-03-06T03:46:25.336Z,42.36
2017-03-06T03:47:25.377Z,41.68
2017-03-06T03:48:25.390Z,42.16
2017-03-06T03:49:25.415Z,41.68
2017-03-06T03:50:25.439Z,41.78
2017-03-06T03:51:25.464Z,41.97
2017-03-06T03:52:25.508Z,41.97
2017-03-06T03:53:25.521Z,41.88
2017-03-06T03:54:25.390Z,41.78
2017-03-06T03:55:25.584Z,42.46
2017-03-06T03:56:25.596Z,42.26
2017-03-06T03:57:25.232Z,42.26
2017-03-06T03:58:25.646Z,42.36
2017-03-06T03:59:25.926Z,42.16
2017-03-06T04:00:25.705Z,41.78
2017-03-06T04:01:25.727Z,42.26
2017-03-06T04:02:25.752Z,42.26
2017-03-06T04:03:25.385Z,42.16
2017-03-06T04:04:26.054Z,42.46
2017-03-06T04:05:25.439Z,41.78
2017-03-06T04:06:25.463Z,42.07
2017-03-06T04:07:25.911Z,42.26
2017-03-06T04:08:25.913Z,41.97
2017-03-06T04:09:26.201Z,41.68
2017-03-06T04:10:25.966Z,41.68
2017-03-06T04:11:25.995Z,42.46
2017-03-06T04:12:26.016Z,41.97
2017-03-06T04:13:25.641Z,42.46
2017-03-06T04:14:25.925Z,42.36
2017-03-06T04:15:25.715Z,42.46
2017-03-06T04:16:26.134Z,42.26
2017-03-06T04:17:26.151Z,42.46
2017-03-06T04:18:26.189Z,42.46
2017-03-06T04:19:26.457Z,42.36
2017-03-06T04:20:26.246Z,42.46
2017-03-06T04:21:26.259Z,42.55
2017-03-06T04:22:26.287Z,41.97
2017-03-06T04:23:26.311Z,42.16
2017-03-06T04:24:26.588Z,42.46
2017-03-06T04:25:26.361Z,42.26
2017-03-06T04:26:26.406Z,42.07
2017-03-06T04:27:26.409Z,42.36
2017-03-06T04:28:26.051Z,41.68
2017-03-06T04:29:26.720Z,42.46
2017-03-06T04:30:26.497Z,42.26
2017-03-06T04:31:26.517Z,41.68
2017-03-06T04:32:26.550Z,41.78
2017-03-06T04:33:26.191Z,41.88
2017-03-06T04:34:26.840Z,41.78
2017-03-06T04:35:26.229Z,41.68
2017-03-06T04:36:26.257Z,42.46
2017-03-06T04:37:26.284Z,42.36
2017-03-06T04:38:26.707Z,42.33
2017-03-06T04:39:26.727Z,42.16
2017-03-06T04:40:26.755Z,42.16
2017-03-06T04:41:26.776Z,42.24
2017-03-06T04:42:26.810Z,42.07
2017-03-06T04:43:26.844Z,41.95
2017-03-06T04:44:26.859Z,42.26
2017-03-06T04:45:26.888Z,42.05
2017-03-06T04:46:26.929Z,42.24
2017-03-06T04:47:26.954Z,42.14
2017-03-06T04:48:26.966Z,42.07
2017-03-06T04:49:26.991Z,42.33
2017-03-06T04:50:27.031Z,42.33
2017-03-06T04:51:26.648Z,42.24
2017-03-06T04:52:27.085Z,42.14
2017-03-06T04:53:27.100Z,42.16
2017-03-06T04:54:27.119Z,42.14
2017-03-06T04:55:27.152Z,42.24
2017-03-06T04:56:27.183Z,42.33
2017-03-06T04:57:27.204Z,42.55
2017-03-06T04:58:26.837Z,42.26
2017-03-06T04:59:27.269Z,42.24
2017-03-06T05:00:27.300Z,42.24
2017-03-06T05:01:27.308Z,42.33
2017-03-06T05:02:27.344Z,42.07
2017-03-06T05:03:27.373Z,42.16
2017-03-06T05:04:26.994Z,42.43
2017-03-06T05:05:27.410Z,42.05
2017-03-06T05:06:27.440Z,41.95
2017-03-06T05:07:27.464Z,42.24
2017-03-06T05:08:27.496Z,42.14
2017-03-06T05:09:27.518Z,42.07
2017-03-06T05:10:27.553Z,42.05
2017-03-06T05:11:27.195Z,42.16
2017-03-06T05:12:27.592Z,42.14
2017-03-06T05:13:27.620Z,42.14
2017-03-06T05:14:27.649Z,42.33
2017-03-06T05:15:27.678Z,42.05
2017-03-06T05:16:27.303Z,42.14
2017-03-06T05:17:27.727Z,42.24
2017-03-06T05:18:27.754Z,42.43
2017-03-06T05:19:27.796Z,42.53
2017-03-06T05:20:27.823Z,42.14
2017-03-06T05:21:27.834Z,42.33
2017-03-06T05:22:27.476Z,42.46
2017-03-06T05:23:27.492Z,42.43
2017-03-06T05:24:27.921Z,42.33
2017-03-06T05:25:27.937Z,42.16
2017-03-06T05:26:27.571Z,42.33
2017-03-06T05:27:27.599Z,42.46
2017-03-06T05:28:28.031Z,42.33
2017-03-06T05:29:27.659Z,42.43
2017-03-06T05:30:27.924Z,42.16
2017-03-06T05:31:28.111Z,42.16
2017-03-06T05:32:27.726Z,42.16
2017-03-06T05:33:28.168Z,42.16
2017-03-06T05:34:27.777Z,42.07
2017-03-06T05:35:28.465Z,42.16
2017-03-06T05:36:28.242Z,42.16
2017-03-06T05:37:28.267Z,42.16
2017-03-06T05:38:27.890Z,42.16
2017-03-06T05:39:28.312Z,42.16
2017-03-06T05:40:28.588Z,42.16
2017-03-06T05:41:28.365Z,42.46
2017-03-06T05:42:28.405Z,42.46
2017-03-06T05:43:28.418Z,42.26
2017-03-06T05:44:28.439Z,42.46
2017-03-06T05:45:28.740Z,41.78
2017-03-06T05:46:28.106Z,42.46
2017-03-06T05:47:28.517Z,41.68
2017-03-06T05:48:28.163Z,41.59
2017-03-06T05:49:28.176Z,42.26
2017-03-06T05:50:28.852Z,42.07
2017-03-06T05:51:28.637Z,42.07
2017-03-06T05:52:28.269Z,41.88
2017-03-06T05:53:28.286Z,42.07
2017-03-06T05:54:28.703Z,42.16
2017-03-06T05:55:28.731Z,42.07
2017-03-06T05:56:28.756Z,42.07
2017-03-06T05:57:28.786Z,41.97
2017-03-06T05:58:28.810Z,42.19
2017-03-06T05:59:28.835Z,42.16
2017-03-06T06:00:28.863Z,41.61
2017-03-06T06:01:28.884Z,41.99
2017-03-06T06:02:28.921Z,41.99
2017-03-06T06:03:28.954Z,42.09
2017-03-06T06:04:28.971Z,41.61
2017-03-06T06:05:29.020Z,41.61
2017-03-06T06:06:29.020Z,41.99
2017-03-06T06:07:29.053Z,41.89
2017-03-06T06:08:28.680Z,41.61
2017-03-06T06:09:29.094Z,41.8
2017-03-06T06:10:28.731Z,41.71
2017-03-06T06:11:29.156Z,41.71
2017-03-06T06:12:29.192Z,41.22
2017-03-06T06:13:29.213Z,41.61
2017-03-06T06:14:29.233Z,41.61
2017-03-06T06:15:29.255Z,41.71
2017-03-06T06:16:28.900Z,41.41
2017-03-06T06:17:29.316Z,41.89
2017-03-06T06:18:29.346Z,41.8
2017-03-06T06:19:29.365Z,41.99
2017-03-06T06:20:29.396Z,42.09
2017-03-06T06:21:29.422Z,42.09
2017-03-06T06:22:29.449Z,42.19
2017-03-06T06:23:29.072Z,42.19
2017-03-06T06:24:29.498Z,42.09
2017-03-06T06:25:29.523Z,41.89
2017-03-06T06:26:29.555Z,42.09
2017-03-06T06:27:29.584Z,42.02
2017-03-06T06:28:29.600Z,42.09
2017-03-06T06:29:29.250Z,42.09
2017-03-06T06:30:29.658Z,42.09
2017-03-06T06:31:29.686Z,41.71
2017-03-06T06:32:29.708Z,42.09
2017-03-06T06:33:29.737Z,41.71
2017-03-06T06:34:29.776Z,41.71
2017-03-06T06:35:29.786Z,41.8
2017-03-06T06:36:29.819Z,41.8
2017-03-06T06:37:29.458Z,42.09
2017-03-06T06:38:29.876Z,42.09
2017-03-06T06:39:29.889Z,41.71
2017-03-06T06:40:29.918Z,41.82
2017-03-06T06:41:29.951Z,41.72
2017-03-06T06:42:29.995Z,42.47
2017-03-06T06:43:29.612Z,42.02
2017-03-06T06:44:30.048Z,41.99
2017-03-06T06:45:30.062Z,42.3
2017-03-06T06:46:30.106Z,42.11
2017-03-06T06:47:29.713Z,42.11
2017-03-06T06:48:30.151Z,42.21
2017-03-06T06:49:30.160Z,42.4
2017-03-06T06:50:30.228Z,42.21
2017-03-06T06:51:30.214Z,42.11
2017-03-06T06:52:30.266Z,42.21
2017-03-06T06:53:30.283Z,42.3
2017-03-06T06:54:30.308Z,42.11
2017-03-06T06:55:30.321Z,42.21
2017-03-06T06:56:30.365Z,42.11
2017-03-06T06:57:30.383Z,42.21
2017-03-06T06:58:30.007Z,42.11
2017-03-06T06:59:30.420Z,42.21
2017-03-06T07:00:30.479Z,42.21
2017-03-06T07:01:30.729Z,42.3
2017-03-06T07:02:30.112Z,42.21
2017-03-06T07:03:30.155Z,42.3
2017-03-06T07:04:30.163Z,41.92
2017-03-06T07:05:30.584Z,42.3
2017-03-06T07:06:30.865Z,42.3
2017-03-06T07:07:30.654Z,42.3
2017-03-06T07:08:30.667Z,42.4
2017-03-06T07:09:30.692Z,42.49
2017-03-06T07:10:30.718Z,42.3
2017-03-06T07:11:30.597Z,42.11
2017-03-06T07:12:30.386Z,42.02
2017-03-06T07:13:30.407Z,42.21
2017-03-06T07:14:30.435Z,42.02
2017-03-06T07:15:30.847Z,41.72
2017-03-06T07:16:31.137Z,42.21
2017-03-06T07:17:30.913Z,42.4
2017-03-06T07:18:30.538Z,42.4
2017-03-06T07:19:30.970Z,42.11
2017-03-06T07:20:30.980Z,41.92
2017-03-06T07:21:31.265Z,42.4
2017-03-06T07:22:30.638Z,42.4
2017-03-06T07:23:30.670Z,42.21
2017-03-06T07:24:31.090Z,42.3
2017-03-06T07:25:31.118Z,42.3
2017-03-06T07:26:31.392Z,42.21
2017-03-06T07:27:31.182Z,41.63
2017-03-06T07:28:31.202Z,41.82
2017-03-06T07:29:31.227Z,42.21
2017-03-06T07:30:31.253Z,42.02
2017-03-06T07:31:31.538Z,41.53
2017-03-06T07:32:30.909Z,41.63
2017-03-06T07:33:31.330Z,41.53
2017-03-06T07:34:31.354Z,42.02
2017-03-06T07:35:31.385Z,42.02
2017-03-06T07:36:31.671Z,42.11
2017-03-06T07:37:31.441Z,41.92
2017-03-06T07:38:31.465Z,42.02
2017-03-06T07:39:31.490Z,42.11
2017-03-06T07:40:31.527Z,41.92
2017-03-06T07:41:31.791Z,42.02
2017-03-06T07:42:31.568Z,42.11
2017-03-06T07:43:31.605Z,42.02
2017-03-06T07:44:31.630Z,42.11
2017-03-06T07:45:31.644Z,42.02
2017-03-06T07:46:31.674Z,41.53
2017-03-06T07:47:31.709Z,42.11
2017-03-06T07:48:31.733Z,42.21
2017-03-06T07:49:31.766Z,42.02
2017-03-06T07:50:31.786Z,41.82
2017-03-06T07:51:31.442Z,42.11
2017-03-06T07:52:31.840Z,42.02
2017-03-06T07:53:31.864Z,42.02
2017-03-06T07:54:31.905Z,42.11
2017-03-06T07:55:31.919Z,42.02
2017-03-06T07:56:31.951Z,42.02
2017-03-06T07:57:31.972Z,42.11
2017-03-06T07:58:32.001Z,42.02
2017-03-06T07:59:32.049Z,42.02
2017-03-06T08:00:32.062Z,42.02
2017-03-06T08:01:32.082Z,42.02
2017-03-06T08:02:32.104Z,41.92
2017-03-06T08:03:32.144Z,42.02
2017-03-06T08:04:32.170Z,42.49
2017-03-06T08:05:32.206Z,42.02
2017-03-06T08:06:32.229Z,42.21
2017-03-06T08:07:32.243Z,42.21
2017-03-06T08:08:32.268Z,42.21
2017-03-06T08:09:32.297Z,42.3
2017-03-06T08:10:32.325Z,42.3
2017-03-06T08:11:32.353Z,42.4
2017-03-06T08:12:32.387Z,42.21
2017-03-06T08:13:32.416Z,42.3
2017-03-06T08:14:32.441Z,42.02
2017-03-06T08:15:32.074Z,41.72
2017-03-06T08:16:32.486Z,42.3
2017-03-06T08:17:32.519Z,42.11
2017-03-06T08:18:32.135Z,42.11
2017-03-06T08:19:32.571Z,42.3
2017-03-06T08:20:32.588Z,42.49
2017-03-06T08:21:32.621Z,42.49
2017-03-06T08:22:32.641Z,42.4
2017-03-06T08:23:32.270Z,42.4
2017-03-06T08:24:32.696Z,42.3
2017-03-06T08:25:32.736Z,42.21
2017-03-06T08:26:32.357Z,42.21
2017-03-06T08:27:32.784Z,42.21
2017-03-06T08:28:32.814Z,42.4
2017-03-06T08:29:32.831Z,42.02
2017-03-06T08:30:32.464Z,42.11
2017-03-06T08:31:32.901Z,42.3
2017-03-06T08:32:32.922Z,42.3
2017-03-06T08:33:32.939Z,42.3
2017-03-06T08:34:32.963Z,42.4
2017-03-06T08:35:33.040Z,42.3
2017-03-06T08:36:32.624Z,42.4
2017-03-06T08:37:33.049Z,42.49
2017-03-06T08:38:33.071Z,42.4
2017-03-06T08:39:32.713Z,42.47
2017-03-06T08:40:33.135Z,42.4
2017-03-06T08:41:33.168Z,42.49
2017-03-06T08:42:33.185Z,42.4
2017-03-06T08:43:33.230Z,42.49
2017-03-06T08:44:33.235Z,42.49
2017-03-06T08:45:33.263Z,42.49
2017-03-06T08:46:33.288Z,42.4
2017-03-06T08:47:32.920Z,42.11
2017-03-06T08:48:33.340Z,42.4
2017-03-06T08:49:33.370Z,41.92
2017-03-06T08:50:33.403Z,42.3
2017-03-06T08:51:33.424Z,42.21
2017-03-06T08:52:33.452Z,42.3
2017-03-06T08:53:33.481Z,42.11
2017-03-06T08:54:33.106Z,42.4
2017-03-06T08:55:33.135Z,42.4
2017-03-06T08:56:33.559Z,42.49
2017-03-06T08:57:33.601Z,42.3
2017-03-06T08:58:33.613Z,42.49
2017-03-06T08:59:33.637Z,42.19
2017-03-06T09:00:33.305Z,42.47
2017-03-06T09:01:33.311Z,42.57
2017-03-06T09:02:33.720Z,42.88
2017-03-06T09:03:33.351Z,42.57
2017-03-06T09:04:33.768Z,43.24
2017-03-06T09:05:33.810Z,43.15
2017-03-06T09:06:33.435Z,43.15
2017-03-06T09:07:33.856Z,43.15
2017-03-06T09:08:33.880Z,43.24
2017-03-06T09:09:33.509Z,43.05
2017-03-06T09:10:33.934Z,42.86
2017-03-06T09:11:33.970Z,43.05
2017-03-06T09:12:33.983Z,42.97
2017-03-06T09:13:34.055Z,43.05
2017-03-06T09:14:34.056Z,42.76
2017-03-06T09:15:33.677Z,42.96
2017-03-06T09:16:34.110Z,42.96
2017-03-06T09:17:34.367Z,43.15
2017-03-06T09:18:33.751Z,43.05
2017-03-06T09:19:34.180Z,43.07
2017-03-06T09:20:34.206Z,42.69
2017-03-06T09:21:34.238Z,42.96
2017-03-06T09:22:34.125Z,43.05
2017-03-06T09:23:34.287Z,43.17
2017-03-06T09:24:34.319Z,43.05
2017-03-06T09:25:34.345Z,42.96
2017-03-06T09:26:34.385Z,42.76
2017-03-06T09:27:34.641Z,42.96
2017-03-06T09:28:34.411Z,43.54
2017-03-06T09:29:34.440Z,43.54
2017-03-06T09:30:34.481Z,42.47
2017-03-06T09:31:34.497Z,42.97
2017-03-06T09:32:34.774Z,43.17
2017-03-06T09:33:34.563Z,42.88
2017-03-06T09:34:34.575Z,43.17
2017-03-06T09:35:34.603Z,42.49
2017-03-06T09:36:34.641Z,42.49
2017-03-06T09:37:34.925Z,42.59
2017-03-06T09:38:34.678Z,42.69
2017-03-06T09:39:34.723Z,42.59
2017-03-06T09:40:34.354Z,42.49
2017-03-06T09:41:34.765Z,42.59
2017-03-06T09:42:34.794Z,42.59
2017-03-06T09:43:34.422Z,42.69
2017-03-06T09:44:34.860Z,42.59
2017-03-06T09:45:34.888Z,42.59
2017-03-06T09:46:34.900Z,42.11
2017-03-06T09:47:34.937Z,42.21
2017-03-06T09:48:34.954Z,42.4
2017-03-06T09:49:34.979Z,42.4
2017-03-06T09:50:34.607Z,42.02
2017-03-06T09:51:34.640Z,42.11
2017-03-06T09:52:35.069Z,42.02
2017-03-06T09:53:34.694Z,42.13
2017-03-06T09:54:34.718Z,42.3
2017-03-06T09:55:35.155Z,42.32
2017-03-06T09:56:35.169Z,41.94
2017-03-06T09:57:35.196Z,42.13
2017-03-06T09:58:35.231Z,42.32
2017-03-06T09:59:35.250Z,42.52
2017-03-06T10:00:35.299Z,42.32
2017-03-06T10:01:35.310Z,42.13
2017-03-06T10:02:35.344Z,42.03
2017-03-06T10:03:35.369Z,42.32
2017-03-06T10:04:35.397Z,42.32
2017-03-06T10:05:35.427Z,42.42
2017-03-06T10:06:35.443Z,42.23
2017-03-06T10:07:35.463Z,42.32
2017-03-06T10:08:35.500Z,42.35
2017-03-06T10:09:35.526Z,42.32
2017-03-06T10:10:35.158Z,42.32
2017-03-06T10:11:35.201Z,42.25
2017-03-06T10:12:35.616Z,42.63
2017-03-06T10:13:35.888Z,42.54
2017-03-06T10:14:35.665Z,42.05
2017-03-06T10:15:35.686Z,42.15
2017-03-06T10:16:35.721Z,42.54
2017-03-06T10:17:35.739Z,42.73
2017-03-06T10:18:36.024Z,42.63
2017-03-06T10:19:35.801Z,42.54
2017-03-06T10:20:35.441Z,42.73
2017-03-06T10:21:35.853Z,42.73
2017-03-06T10:22:35.879Z,42.54
2017-03-06T10:23:35.764Z,42.73
2017-03-06T10:24:35.541Z,43.21
2017-03-06T10:25:35.965Z,43.31
2017-03-06T10:26:36.003Z,42.73
2017-03-06T10:27:36.014Z,42.93
2017-03-06T10:28:36.303Z,43.12
2017-03-06T10:29:36.076Z,42.63
2017-03-06T10:30:36.114Z,43.31
2017-03-06T10:31:36.141Z,42.63
2017-03-06T10:32:35.746Z,42.44
2017-03-06T10:33:36.431Z,42.63
2017-03-06T10:34:35.816Z,42.63
2017-03-06T10:35:36.246Z,42.63
2017-03-06T10:36:36.261Z,42.73
2017-03-06T10:37:36.290Z,42.83
2017-03-06T10:38:36.582Z,43.21
2017-03-06T10:39:36.343Z,43.12
2017-03-06T10:40:36.384Z,43.12
2017-03-06T10:41:36.013Z,43.12
2017-03-06T10:42:36.431Z,43.02
2017-03-06T10:43:36.706Z,42.93
2017-03-06T10:44:36.507Z,42.93
2017-03-06T10:45:36.508Z,43.21
2017-03-06T10:46:36.536Z,43.02
2017-03-06T10:47:36.578Z,43.12
2017-03-06T10:48:36.837Z,42.63
2017-03-06T10:49:36.620Z,43.02
2017-03-06T10:50:36.251Z,43.21
2017-03-06T10:51:36.689Z,42.44
2017-03-06T10:52:36.697Z,42.73
2017-03-06T10:53:37.003Z,42.73
2017-03-06T10:54:36.767Z,42.63
2017-03-06T10:55:36.796Z,42.73
2017-03-06T10:56:36.813Z,42.25
2017-03-06T10:57:36.837Z,42.13
2017-03-06T10:58:37.121Z,42.32
2017-03-06T10:59:36.910Z,42.73
2017-03-06T11:00:36.923Z,43.19
2017-03-06T11:01:36.952Z,43.29
2017-03-06T11:02:36.972Z,42.52
2017-03-06T11:03:37.256Z,43.29
2017-03-06T11:04:37.034Z,43.31
2017-03-06T11:05:37.075Z,42.9
2017-03-06T11:06:37.087Z,42.71
2017-03-06T11:07:37.112Z,42.9
2017-03-06T11:08:37.400Z,42.9
2017-03-06T11:09:37.174Z,43
2017-03-06T11:10:36.810Z,42.9
2017-03-06T11:11:37.223Z,42.61
2017-03-06T11:12:37.259Z,43
2017-03-06T11:13:37.539Z,43
2017-03-06T11:14:37.315Z,43.1
2017-03-06T11:15:37.338Z,43.48
2017-03-06T11:16:37.363Z,42.9
2017-03-06T11:17:37.387Z,43.29
2017-03-06T11:18:37.294Z,42.8
2017-03-06T11:19:37.454Z,43
2017-03-06T11:20:37.473Z,43.29
2017-03-06T11:21:37.492Z,43.1
2017-03-06T11:22:37.527Z,43.19
2017-03-06T11:23:37.804Z,43.38
2017-03-06T11:24:37.580Z,43.67
2017-03-06T11:25:37.214Z,43.96
2017-03-06T11:26:37.649Z,43.67
2017-03-06T11:27:37.660Z,43.58
2017-03-06T11:28:37.962Z,43.58
2017-03-06T11:29:37.717Z,43.29
2017-03-06T11:30:37.769Z,43.67
2017-03-06T11:31:37.385Z,43.48
2017-03-06T11:32:37.398Z,43.58
2017-03-06T11:33:37.435Z,43.85
2017-03-06T11:34:37.864Z,43.96
2017-03-06T11:35:37.892Z,43.77
2017-03-06T11:36:37.909Z,43.77
2017-03-06T11:37:37.939Z,43.77
2017-03-06T11:38:37.984Z,43.38
2017-03-06T11:39:37.988Z,43.77
2017-03-06T11:40:38.027Z,43.58
2017-03-06T11:41:38.046Z,43.38
2017-03-06T11:42:37.678Z,43.75
2017-03-06T11:43:38.103Z,43.87
2017-03-06T11:44:37.751Z,43.38
2017-03-06T11:45:38.151Z,43.29
2017-03-06T11:46:38.185Z,43.19
2017-03-06T11:47:38.225Z,43.48
2017-03-06T11:48:37.837Z,43.87
2017-03-06T11:49:37.871Z,43.38
2017-03-06T11:50:37.900Z,43
2017-03-06T11:51:38.317Z,43.29
2017-03-06T11:52:38.345Z,43.29
2017-03-06T11:53:37.980Z,42.52
2017-03-06T11:54:38.399Z,42.71
2017-03-06T11:55:38.436Z,43.1
2017-03-06T11:56:38.452Z,43.1
2017-03-06T11:57:38.477Z,42.9
2017-03-06T11:58:38.116Z,43.1
2017-03-06T11:59:38.550Z,42.8
2017-03-06T12:00:38.572Z,42.52
2017-03-06T12:01:38.591Z,43.48
2017-03-06T12:02:38.629Z,42.8
2017-03-06T12:03:38.254Z,43.1
2017-03-06T12:04:38.279Z,43
2017-03-06T12:05:38.702Z,43.29
2017-03-06T12:06:38.727Z,42.8
2017-03-06T12:07:38.753Z,43.1
2017-03-06T12:08:38.378Z,42.71
2017-03-06T12:09:38.814Z,43
2017-03-06T12:10:38.847Z,43.29
2017-03-06T12:11:38.868Z,43.19
2017-03-06T12:12:38.497Z,42.8
2017-03-06T12:13:38.925Z,43.1
2017-03-06T12:14:38.966Z,43
2017-03-06T12:15:38.990Z,43
2017-03-06T12:16:38.606Z,43
2017-03-06T12:17:39.031Z,42.9
2017-03-06T12:18:39.052Z,42.9
2017-03-06T12:19:39.095Z,43.19
2017-03-06T12:20:39.124Z,43
2017-03-06T12:21:39.156Z,42.71
2017-03-06T12:22:38.776Z,43.58
2017-03-06T12:23:38.805Z,43
2017-03-06T12:24:39.229Z,43
2017-03-06T12:25:39.254Z,43.29
2017-03-06T12:26:38.875Z,42.61
2017-03-06T12:27:38.902Z,42.54
2017-03-06T12:28:39.326Z,42.35
2017-03-06T12:29:39.352Z,42.35
2017-03-06T12:30:39.398Z,42.15
2017-03-06T12:31:39.426Z,42.25
2017-03-06T12:32:39.057Z,42.35
2017-03-06T12:33:39.476Z,42.35
2017-03-06T12:34:39.505Z,42.35
2017-03-06T12:35:39.517Z,42.54
2017-03-06T12:36:39.178Z,41.77
2017-03-06T12:37:39.180Z,41.77
2017-03-06T12:38:39.604Z,42.05
2017-03-06T12:39:39.880Z,42.54
2017-03-06T12:40:39.669Z,42.54
2017-03-06T12:41:39.355Z,42.05
2017-03-06T12:42:39.718Z,42.25
2017-03-06T12:43:39.744Z,42.25
2017-03-06T12:44:40.024Z,42.25
2017-03-06T12:45:39.801Z,42.03
2017-03-06T12:46:39.826Z,42.23
2017-03-06T12:47:39.459Z,42.52
2017-03-06T12:48:39.884Z,42.32
2017-03-06T12:49:39.760Z,42.32
2017-03-06T12:50:39.937Z,42.23
2017-03-06T12:51:39.965Z,42.52
2017-03-06T12:52:39.594Z,42.61
2017-03-06T12:53:40.023Z,42.13
2017-03-06T12:54:40.303Z,42.42
2017-03-06T12:55:40.072Z,42.23
2017-03-06T12:56:40.117Z,42.52